Pagrindinis puslapis
METAR-TAF:

METAR-TAF

Oro uostai :

Bandžulio tarptautinis oro uostas

Bandžulis, Gambija

platuma: 13-21N, ilguma: 016-48W, Aukštis: 36 m

Dabartinis oras

Ataskaita buvo paskelbta 1 valandą ir 9 minutes, ne 09:00 UTC
Vėjas 2 kt nuo kintamojo kryptimis
Temperatūra 28°C
Drėgmė 94%
Slėgis 1012 hPa
Matomumas 10 km arba daugiau
Su prošvaistėmis ne aukštis 1100 ft

METAR: GBYD 300900Z VRB02KT 9999 BKN011 28/27 Q1012

Laikas: 10:09 (10:09 UTC)

Prognozė

Ataskaita buvo paskelbta 4 valandos ir 39 minutes, ne 05:30 UTC
Prognozė galioja nuo 30 metu 06 UTC su 01 metu 12 UTC
Vėjas 6 kt iš Vakarų/Šiaurės Vakarų
Matomumas 10 km arba daugiau
Išsisklaidę debesys ne aukštis 1300 ft
Tikimybė 30% :
Laikinai
nuo 30 metu 17 UTC su 30 metu 23 UTC
Matomumas: 4000 m
Su prošvaistėmis ne aukštis 1000 ft
Mažai debesys ne aukštis 2000 ft, Liūtiniai kamuoliniai debesys.
perkūnija, lietus

TAF: GBYD 300530Z 3006/0112 30006KT 9999 SCT013 PROB30 TEMPO 3017/3023 4000 TSRA BKN010 FEW020CB

Orai ataskaitas ir orų prognozės (METAR, TAF).

turimą stotys yra geltonos ir raudonos taškus žemėlapyje.

Perkelti pele per norėdami pamatyti stoties vardą.

Tada spustelėkite, norėdami matyti oro stebėjimo ir prognozės.

Norėdami pakeisti žemėlapį: spustelėkite ant žalios mygtukų su juodo kryžiaus žemyn,; žalią mygtuką su brūkšneliu, jei norite nutolinti; arba žalių rodyklių gretimoms žemėlapius.


METAR-TAF: